Time;durP1;ratioP1;P1;durP2;ratioP2;P2;SDS_P1;SDS_P2;PMS_P1;PMS_P2;Temp;Humidity;BMP_temperature;BMP_pressure;BME280_temperature;BME280_humidity;BME280_pressure;Samples;Min_cycle;Max_cycle;Signal;HPM_P1;HPM_P2
2022/04/18 00:00:27;;;;;;;3.33;1.30;;;6.40;48.30;;;;;;5115486;28;20027;-85
2022/04/18 00:02:53;;;;;;;2.65;1.25;;;6.40;48.50;;;;;;5115501;28;20052;-86
2022/04/18 00:05:19;;;;;;;4.85;1.30;;;6.40;48.50;;;;;;5116702;28;20019;-85
2022/04/18 00:07:44;;;;;;;4.82;1.30;;;6.40;48.70;;;;;;5115854;28;20122;-85
2022/04/18 00:10:10;;;;;;;3.92;1.15;;;6.40;48.90;;;;;;5115133;28;20043;-84
2022/04/18 00:12:36;;;;;;;4.30;1.42;;;6.30;49.20;;;;;;5115259;28;20031;-85
2022/04/18 00:15:01;;;;;;;3.20;1.23;;;6.30;49.20;;;;;;5116174;28;20121;-85
2022/04/18 00:17:27;;;;;;;5.53;2.03;;;6.20;49.50;;;;;;5115306;28;20052;-86
2022/04/18 00:19:54;;;;;;;;;;;6.20;49.50;;;;;;5115407;28;20126;-86
2022/04/18 00:22:19;;;;;;;17.02;6.88;;;6.10;49.70;;;;;;5115083;28;19911;-85
2022/04/18 00:24:45;;;;;;;21.50;8.80;;;6.10;49.80;;;;;;5114879;28;20032;-85
2022/04/18 00:27:11;;;;;;;;;;;6.10;49.80;;;;;;5115387;28;20054;-85
2022/04/18 00:29:36;;;;;;;14.23;5.90;;;6.20;49.90;;;;;;5114612;28;19912;-85
2022/04/18 00:32:02;;;;;;;9.70;4.88;;;6.20;49.70;;;;;;5114879;28;20031;-85
2022/04/18 00:34:28;;;;;;;7.90;3.42;;;6.20;49.90;;;;;;5115856;28;20108;-86
2022/04/18 00:36:53;;;;;;;;;;;6.20;49.90;;;;;;5115056;28;20065;-85
2022/04/18 00:39:21;;;;;;;3.50;1.30;;;6.30;49.90;;;;;;5114732;28;20006;-85
2022/04/18 00:41:47;;;;;;;4.00;1.52;;;6.30;50.20;;;;;;5114676;28;20057;-85
2022/04/18 00:44:12;;;;;;;3.92;1.73;;;6.20;50.40;;;;;;5114219;28;20015;-85
2022/04/18 00:46:38;;;;;;;3.80;1.90;;;6.20;50.40;;;;;;5114533;28;20032;-84
2022/04/18 00:49:04;;;;;;;;;;;6.30;50.10;;;;;;5114186;28;20467;-86
2022/04/18 00:51:29;;;;;;;15.38;2.10;;;6.30;50.10;;;;;;5114453;28;20372;-85
2022/04/18 00:53:56;;;;;;;;;;;6.40;49.60;;;;;;5115039;28;20118;-86
2022/04/18 00:56:22;;;;;;;3.90;2.35;;;6.50;49.70;;;;;;5114430;28;19950;-85
2022/04/18 00:58:49;;;;;;;5.32;2.20;;;6.50;49.60;;;;;;5114493;28;20507;-85
2022/04/18 01:01:15;;;;;;;5.07;2.50;;;6.50;49.70;;;;;;5114280;28;20500;-85
2022/04/18 01:03:43;;;;;;;5.38;1.85;;;6.50;49.20;;;;;;5113968;28;20028;-85
2022/04/18 01:06:10;;;;;;;5.97;2.22;;;6.60;49.30;;;;;;5114165;28;20105;-86
2022/04/18 01:08:36;;;;;;;4.50;1.65;;;6.60;49.60;;;;;;5114211;28;20039;-86
2022/04/18 01:11:01;;;;;;;;;;;6.60;49.00;;;;;;5114449;28;20609;-85
2022/04/18 01:13:28;;;;;;;4.03;1.63;;;6.70;49.00;;;;;;5114043;28;19911;-85
2022/04/18 01:15:54;;;;;;;;;;;6.80;48.40;;;;;;5114389;28;20042;-85
2022/04/18 01:18:20;;;;;;;3.85;2.00;;;6.80;48.20;;;;;;5113854;28;19904;-86
2022/04/18 01:20:45;;;;;;;;;;;6.70;48.60;;;;;;5115385;28;20081;-86
2022/04/18 01:23:11;;;;;;;3.15;1.60;;;6.80;48.70;;;;;;5113893;28;19907;-85
2022/04/18 01:31:06;;;;;;;4.57;1.38;;;6.60;49.20;;;;;;5114541;28;20144;-86
2022/04/18 01:33:31;;;;;;;3.30;1.27;;;6.60;49.20;;;;;;5113898;28;20059;-84
2022/04/18 01:35:57;;;;;;;4.80;1.30;;;6.50;49.50;;;;;;5113560;28;20031;-85
2022/04/18 01:38:24;;;;;;;3.05;1.70;;;6.50;49.40;;;;;;5114665;28;20050;-86
2022/04/18 01:40:49;;;;;;;2.88;1.10;;;6.50;49.90;;;;;;5113678;28;20119;-85
2022/04/18 01:43:15;;;;;;;6.07;1.80;;;6.40;49.60;;;;;;5114746;28;20059;-86
2022/04/18 01:45:40;;;;;;;2.97;1.20;;;6.40;49.70;;;;;;5115612;28;20073;-85
2022/04/18 01:48:06;;;;;;;4.35;1.50;;;6.40;49.80;;;;;;5114252;28;20530;-84
2022/04/18 01:50:32;;;;;;;8.10;1.80;;;6.40;49.50;;;;;;5112878;28;20423;-86
2022/04/18 01:52:57;;;;;;;3.88;1.58;;;6.40;49.30;;;;;;5114500;28;20023;-85
2022/04/18 01:55:23;;;;;;;2.20;1.02;;;6.40;49.80;;;;;;5113639;28;20028;-85
2022/04/18 01:57:49;;;;;;;4.07;1.48;;;6.30;49.70;;;;;;5114445;28;20032;-85
2022/04/18 02:00:15;;;;;;;3.03;1.05;;;6.40;50.00;;;;;;5114293;28;20435;-86
2022/04/18 02:02:41;;;;;;;3.67;1.48;;;6.30;50.00;;;;;;5113063;28;20024;-86
2022/04/18 02:05:07;;;;;;;2.45;1.13;;;6.30;50.20;;;;;;5113010;28;20480;-85
2022/04/18 02:07:33;;;;;;;;;;;6.30;50.30;;;;;;5113729;28;20038;-86
2022/04/18 02:09:59;;;;;;;6.78;1.45;;;6.30;50.90;;;;;;5112883;27;19920;-85
2022/04/18 02:12:25;;;;;;;4.22;1.63;;;6.30;51.30;;;;;;5111711;28;20023;-85
2022/04/18 02:14:50;;;;;;;2.90;1.23;;;6.20;51.60;;;;;;5111903;28;20412;-86
2022/04/18 02:17:16;;;;;;;3.13;1.08;;;6.20;52.20;;;;;;5112865;28;20020;-86
2022/04/18 02:19:42;;;;;;;3.67;1.23;;;6.10;52.50;;;;;;5112937;28;20409;-85
2022/04/18 02:22:08;;;;;;;;;;;6.10;52.70;;;;;;5113098;28;20047;-86
2022/04/18 02:24:33;;;;;;;3.30;0.90;;;6.10;52.70;;;;;;5112830;28;19951;-86
2022/04/18 02:26:59;;;;;;;7.63;1.60;;;6.00;52.90;;;;;;5112906;28;20031;-86
2022/04/18 02:29:24;;;;;;;2.78;1.17;;;6.00;53.30;;;;;;5112064;28;20086;-86
2022/04/18 02:34:34;;;;;;;3.80;1.20;;;5.80;55.30;;;;;;5113410;28;20379;-86
2022/04/18 02:37:00;;;;;;;4.32;1.55;;;5.70;55.20;;;;;;5112527;28;20020;-85
2022/04/18 02:39:26;;;;;;;;;;;5.70;55.40;;;;;;5113028;28;20042;-86
2022/04/18 02:41:51;;;;;;;5.10;1.48;;;5.70;56.00;;;;;;5112847;28;19908;-85
2022/04/18 02:44:17;;;;;;;4.30;1.67;;;5.60;55.90;;;;;;5112560;28;20111;-85
2022/04/18 02:46:42;;;;;;;;;;;5.60;56.30;;;;;;5112893;28;20080;-86
2022/04/18 02:49:08;;;;;;;2.75;1.23;;;5.60;57.40;;;;;;5112018;28;19916;-86
2022/04/18 02:51:34;;;;;;;3.08;0.95;;;5.50;57.30;;;;;;5112242;28;20035;-85
2022/04/18 02:53:59;;;;;;;2.88;1.10;;;5.50;57.20;;;;;;5112138;28;20028;-86
2022/04/18 02:56:25;;;;;;;2.97;1.40;;;5.50;57.40;;;;;;5112316;28;20681;-85
2022/04/18 02:58:51;;;;;;;;;;;5.50;57.40;;;;;;5112653;28;20019;-85
2022/04/18 03:01:16;;;;;;;2.70;1.02;;;5.50;57.70;;;;;;5112107;28;19904;-85
2022/04/18 03:03:42;;;;;;;3.88;1.20;;;5.40;57.70;;;;;;5112132;28;20027;-86
2022/04/18 03:06:08;;;;;;;;;;;5.40;58.70;;;;;;5112700;28;20472;-85
2022/04/18 03:08:34;;;;;;;5.57;1.70;;;5.40;58.10;;;;;;5112154;28;19949;-85
2022/04/18 03:11:06;;;;;;;3.15;1.40;;;5.40;58.30;;;;;;5113362;28;20036;-85
2022/04/18 03:13:33;;;;;;;2.63;1.20;;;5.30;58.60;;;;;;5112676;28;20032;-85
2022/04/18 03:15:59;;;;;;;5.82;1.90;;;5.40;58.80;;;;;;5112202;28;20407;-85
2022/04/18 03:18:25;;;;;;;;;;;5.30;60.10;;;;;;5113587;28;20028;-85
2022/04/18 03:20:51;;;;;;;5.55;1.48;;;5.30;59.20;;;;;;5112916;28;19904;-85
2022/04/18 03:23:17;;;;;;;;;;;5.30;59.60;;;;;;5112514;28;20020;-85
2022/04/18 03:25:42;;;;;;;5.00;1.75;;;5.40;60.50;;;;;;5113197;28;19911;-86
2022/04/18 03:28:09;;;;;;;;;;;5.30;60.00;;;;;;5117604;28;20104;-85
2022/04/18 03:30:35;;;;;;;5.85;1.42;;;5.30;59.80;;;;;;5115885;28;20010;-85
2022/04/18 03:33:00;;;;;;;;;;;5.30;60.20;;;;;;5117691;28;20119;-85
2022/04/18 03:35:30;;;;;;;3.75;1.25;;;5.40;60.50;;;;;;5116027;28;20364;-85
2022/04/18 03:40:41;;;;;;;4.75;1.58;;;5.30;59.50;;;;;;5117216;28;20118;-85
2022/04/18 03:43:06;;;;;;;5.03;1.30;;;5.50;59.20;;;;;;5115838;28;20069;-85
2022/04/18 03:45:32;;;;;;;;;;;5.50;58.80;;;;;;5116358;28;20403;-85
2022/04/18 03:47:58;;;;;;;4.22;1.40;;;5.50;58.60;;;;;;5115967;28;20037;-85
2022/04/18 03:50:23;;;;;;;3.83;2.05;;;5.50;58.30;;;;;;5115379;28;20105;-85
2022/04/18 03:52:49;;;;;;;5.30;2.30;;;5.50;58.30;;;;;;5115460;28;20020;-84
2022/04/18 03:55:14;;;;;;;5.78;2.78;;;5.50;58.30;;;;;;5115552;28;20180;-85
2022/04/18 03:57:40;;;;;;;10.88;5.45;;;5.50;58.30;;;;;;5115532;28;20027;-85
2022/04/18 04:00:07;;;;;;;;;;;5.60;58.90;;;;;;5115840;28;20027;-85
2022/04/18 04:02:32;;;;;;;5.28;2.92;;;5.60;59.00;;;;;;5115332;28;19903;-85
2022/04/18 04:04:58;;;;;;;3.22;1.75;;;5.60;59.00;;;;;;5116437;28;20073;-84
2022/04/18 04:07:23;;;;;;;;;;;5.70;60.30;;;;;;5115367;28;20027;-85
2022/04/18 04:09:49;;;;;;;3.53;1.70;;;5.60;61.10;;;;;;5115119;28;19911;-86
2022/04/18 04:12:25;;;;;;;4.70;1.88;;;5.60;61.10;;;;;;5116328;28;20035;-85
2022/04/18 04:14:52;;;;;;;3.70;1.50;;;5.50;60.70;;;;;;5115356;28;20024;-85
2022/04/18 04:17:18;;;;;;;4.72;2.47;;;5.60;60.30;;;;;;5113968;28;20050;-84
2022/04/18 04:19:44;;;;;;;5.78;2.45;;;5.60;59.60;;;;;;5114896;28;20487;-85
2022/04/18 04:22:10;;;;;;;;;;;5.80;59.80;;;;;;5114879;28;20548;-85
2022/04/18 04:24:36;;;;;;;7.43;2.17;;;5.90;59.50;;;;;;5114662;28;19964;-85
2022/04/18 04:27:02;;;;;;;3.58;1.65;;;5.90;59.30;;;;;;5114344;28;20024;-85
2022/04/18 04:29:27;;;;;;;4.07;2.05;;;6.00;58.70;;;;;;5114220;28;20621;-85
2022/04/18 04:31:53;;;;;;;7.57;2.08;;;6.00;58.90;;;;;;5114452;28;20038;-85
2022/04/18 04:34:19;;;;;;;4.28;2.05;;;6.10;58.50;;;;;;5114517;28;20035;-84
2022/04/18 04:36:44;;;;;;;4.55;2.00;;;6.20;58.20;;;;;;5113925;28;20028;-85
2022/04/18 04:39:10;;;;;;;9.77;3.22;;;6.30;57.40;;;;;;5113921;28;20031;-85
2022/04/18 04:41:37;;;;;;;4.25;2.35;;;6.40;57.60;;;;;;5115525;28;20038;-85
2022/04/18 04:44:03;;;;;;;5.22;2.17;;;6.40;57.60;;;;;;5113072;28;20058;-85
2022/04/18 04:46:29;;;;;;;5.70;2.58;;;6.40;57.60;;;;;;5113752;28;20031;-85
2022/04/18 04:48:55;;;;;;;9.13;2.28;;;6.50;57.10;;;;;;5114304;28;20044;-85
2022/04/18 04:51:21;;;;;;;9.75;2.90;;;6.60;56.00;;;;;;5115676;28;20047;-85
2022/04/18 04:53:47;;;;;;;6.13;2.67;;;6.70;56.70;;;;;;5113770;28;20051;-84
2022/04/18 04:56:13;;;;;;;6.47;2.72;;;6.80;55.80;;;;;;5114122;28;20051;-86
2022/04/18 04:58:38;;;;;;;8.93;3.50;;;6.90;55.50;;;;;;5114397;28;20480;-85
2022/04/18 05:01:05;;;;;;;;;;;7.10;54.90;;;;;;5114400;28;20549;-84
2022/04/18 05:03:30;;;;;;;6.68;2.63;;;7.30;54.30;;;;;;5114407;28;19990;-85
2022/04/18 05:05:56;;;;;;;7.10;2.85;;;7.80;53.00;;;;;;5113854;28;20451;-85
2022/04/18 05:08:21;;;;;;;5.90;2.85;;;8.10;52.20;;;;;;5114234;28;20119;-85
2022/04/18 05:10:47;;;;;;;;;;;8.20;51.60;;;;;;5114264;28;20118;-85
2022/04/18 05:13:13;;;;;;;7.15;2.60;;;9.10;49.80;;;;;;5113992;28;20292;-84
2022/04/18 05:15:39;;;;;;;4.75;2.20;;;9.80;47.00;;;;;;5113840;28;20028;-85
2022/04/18 05:18:04;;;;;;;4.50;1.75;;;10.10;46.10;;;;;;5113984;28;20545;-85
2022/04/18 05:20:31;;;;;;;;;;;10.60;44.40;;;;;;5116329;28;20034;-85
2022/04/18 05:22:57;;;;;;;4.13;1.90;;;10.60;44.00;;;;;;5114718;28;19948;-85
2022/04/18 05:25:24;;;;;;;;;;;10.60;44.20;;;;;;5114100;28;20019;-87
2022/04/18 05:27:50;;;;;;;4.13;1.92;;;10.70;44.00;;;;;;5113472;28;20338;-86
2022/04/18 05:30:15;;;;;;;7.28;1.98;;;11.10;43.00;;;;;;5113831;28;20096;-86
2022/04/18 05:32:43;;;;;;;;;;;11.50;43.60;;;;;;5115475;28;20098;-86
2022/04/18 05:35:09;;;;;;;3.92;1.77;;;11.90;41.50;;;;;;5113551;28;19990;-87
2022/04/18 05:37:34;;;;;;;;;;;12.00;40.70;;;;;;5114120;28;20074;-86
2022/04/18 05:40:00;;;;;;;3.63;1.77;;;12.30;39.80;;;;;;5113382;28;19911;-86
2022/04/18 05:42:25;;;;;;;;;;;12.20;39.40;;;;;;5113801;28;20047;-86
2022/04/18 05:44:51;;;;;;;4.65;1.75;;;11.90;40.80;;;;;;5114511;28;19985;-85
2022/04/18 05:47:17;;;;;;;;;;;12.10;40.00;;;;;;5115301;28;20148;-86
2022/04/18 05:49:42;;;;;;;4.15;2.22;;;12.30;38.90;;;;;;5112439;28;19915;-85
2022/04/18 05:52:08;;;;;;;;;;;12.50;38.50;;;;;;5113468;28;20538;-86
2022/04/18 05:54:33;;;;;;;4.32;2.05;;;12.60;38.20;;;;;;5113154;28;19994;-86
2022/04/18 05:57:02;;;;;;;;;;;12.20;39.00;;;;;;5113248;28;20589;-86
2022/04/18 05:59:28;;;;;;;7.93;3.22;;;11.60;40.00;;;;;;5113222;28;19910;-85
2022/04/18 06:01:54;;;;;;;;;;;11.30;40.50;;;;;;5113546;28;20024;-87
2022/04/18 06:04:19;;;;;;;4.72;2.60;;;11.30;40.90;;;;;;5112191;28;19904;-86
2022/04/18 06:06:45;;;;;;;;;;;11.70;40.10;;;;;;5113451;28;20023;-86
2022/04/18 06:09:11;;;;;;;7.13;2.58;;;12.20;40.60;;;;;;5113964;28;20298;-87
2022/04/18 06:11:36;;;;;;;;;;;13.00;37.90;;;;;;5114674;28;20035;-87
2022/04/18 06:14:02;;;;;;;5.93;2.30;;;13.40;37.40;;;;;;5113070;28;19903;-87
2022/04/18 06:16:28;;;;;;;6.30;2.65;;;13.90;35.80;;;;;;5113277;28;20073;-87
2022/04/18 06:18:54;;;;;;;;;;;14.20;34.50;;;;;;5113341;28;20019;-87
2022/04/18 06:21:19;;;;;;;4.80;2.72;;;13.60;35.80;;;;;;5112949;28;19908;-86
2022/04/18 06:23:45;;;;;;;;;;;12.90;36.70;;;;;;5113015;28;20279;-87
2022/04/18 06:26:11;;;;;;;5.13;2.50;;;12.50;37.40;;;;;;5112774;28;19960;-86
2022/04/18 06:28:36;;;;;;;;;;;12.00;38.00;;;;;;5112788;28;20031;-86
2022/04/18 06:31:02;;;;;;;4.43;1.85;;;11.80;39.00;;;;;;5113793;28;20386;-86
2022/04/18 06:33:29;;;;;;;;;;;11.50;38.50;;;;;;5113132;28;20034;-86
2022/04/18 06:35:55;;;;;;;3.55;2.25;;;11.40;39.10;;;;;;5113613;28;20061;-86
2022/04/18 06:38:21;;;;;;;;;;;11.20;40.10;;;;;;5114043;28;20054;-86
2022/04/18 06:40:46;;;;;;;4.78;2.00;;;11.00;39.50;;;;;;5113470;28;19903;-85
2022/04/18 06:43:12;;;;;;;;;;;10.70;40.70;;;;;;5113763;28;20027;-85
2022/04/18 06:45:37;;;;;;;7.18;2.47;;;10.70;40.40;;;;;;5112315;28;19907;-85
2022/04/18 06:48:03;;;;;;;;;;;10.50;41.80;;;;;;5112749;28;20533;-86
2022/04/18 06:50:28;;;;;;;6.47;3.58;;;10.40;41.70;;;;;;5111935;28;20003;-86
2022/04/18 06:52:54;;;;;;;;;;;10.40;42.10;;;;;;5112616;28;20058;-85
2022/04/18 06:55:20;;;;;;;4.90;2.80;;;10.40;42.30;;;;;;5112226;28;19903;-84
2022/04/18 06:57:45;;;;;;;;;;;10.40;43.20;;;;;;5112858;28;20094;-85
2022/04/18 07:00:11;;;;;;;5.95;2.55;;;10.30;41.90;;;;;;5113368;28;19907;-85
2022/04/18 07:02:44;;;;;;;4.82;2.20;;;10.30;42.30;;;;;;5111977;28;20076;-86
2022/04/18 07:05:10;;;;;;;6.85;2.78;;;10.00;41.90;;;;;;5112138;28;20028;-84
2022/04/18 07:07:36;;;;;;;;;;;10.00;43.00;;;;;;5112625;28;20065;-85
2022/04/18 07:10:02;;;;;;;4.47;2.05;;;10.00;43.40;;;;;;5111978;28;19912;-85
2022/04/18 07:12:28;;;;;;;4.07;1.83;;;10.10;41.80;;;;;;5111195;28;20081;-86
2022/04/18 07:14:56;;;;;;;5.13;2.22;;;10.10;42.50;;;;;;5110763;28;20031;-85
2022/04/18 07:17:21;;;;;;;4.72;2.55;;;10.10;42.60;;;;;;5111582;28;20031;-86
2022/04/18 07:19:47;;;;;;;7.18;2.47;;;10.10;41.90;;;;;;5113041;28;20027;-85
2022/04/18 07:22:13;;;;;;;;;;;10.10;41.80;;;;;;5112579;28;20028;-85
2022/04/18 07:24:38;;;;;;;4.50;2.13;;;10.30;41.80;;;;;;5111853;28;19915;-85
2022/04/18 07:27:04;;;;;;;;;;;10.30;41.80;;;;;;5112223;28;20031;-86
2022/04/18 07:29:29;;;;;;;4.07;1.67;;;10.60;42.00;;;;;;5111931;28;20002;-86
2022/04/18 07:31:55;;;;;;;;;;;11.30;41.10;;;;;;5112126;28;20230;-86
2022/04/18 07:34:21;;;;;;;6.93;2.15;;;12.30;39.80;;;;;;5112105;28;19903;-87
2022/04/18 07:36:47;;;;;;;;;;;13.30;37.70;;;;;;5112157;28;20028;-86
2022/04/18 07:39:12;;;;;;;5.65;2.15;;;13.30;36.40;;;;;;5111883;28;19912;-85
2022/04/18 07:41:38;;;;;;;;;;;13.60;34.90;;;;;;5112031;28;20034;-85
2022/04/18 07:44:04;;;;;;;3.67;1.67;;;13.50;34.50;;;;;;5111587;28;19904;-86
2022/04/18 07:46:30;;;;;;;;;;;12.90;34.70;;;;;;5113497;28;20015;-85
2022/04/18 07:48:56;;;;;;;5.13;1.85;;;12.00;35.30;;;;;;5111447;28;19916;-86
2022/04/18 07:51:39;;;;;;;;;;;11.60;34.20;;;;;;5111530;28;20042;-85
2022/04/18 07:54:16;;;;;;;3.35;1.40;;;11.20;36.70;;;;;;5111545;28;20347;-83
2022/04/18 07:56:43;;;;;;;3.40;1.25;;;11.00;37.10;;;;;;5111409;28;20027;-85
2022/04/18 07:59:10;;;;;;;2.38;1.00;;;10.90;36.60;;;;;;5111806;28;20028;-84
2022/04/18 08:01:35;;;;;;;6.00;2.28;;;10.60;37.10;;;;;;5111590;28;20396;-85
2022/04/18 08:04:01;;;;;;;;;;;10.70;39.80;;;;;;5112029;28;20035;-85
2022/04/18 08:06:28;;;;;;;5.70;1.80;;;11.00;39.90;;;;;;5111541;28;19904;-85
2022/04/18 08:08:54;;;;;;;8.48;2.20;;;11.20;39.50;;;;;;5111293;28;20024;-86
2022/04/18 08:11:20;;;;;;;;;;;11.90;38.50;;;;;;5112051;28;20046;-86
2022/04/18 08:13:47;;;;;;;4.78;1.40;;;12.30;38.20;;;;;;5112838;28;19908;-86
2022/04/18 08:16:13;;;;;;;3.83;1.63;;;12.90;37.70;;;;;;5115047;28;20058;-85
2022/04/18 08:18:42;;;;;;;;;;;13.40;35.30;;;;;;5115470;28;20023;-85
2022/04/18 08:21:08;;;;;;;4.05;1.55;;;13.40;34.70;;;;;;5114625;28;20284;-85
2022/04/18 08:23:35;;;;;;;4.22;1.10;;;12.90;34.60;;;;;;5114749;28;20028;-85
2022/04/18 08:26:02;;;;;;;2.33;1.05;;;12.30;34.50;;;;;;5114841;28;20111;-85
2022/04/18 08:28:28;;;;;;;6.10;2.10;;;11.90;35.10;;;;;;5114329;28;20107;-84
2022/04/18 08:30:53;;;;;;;;;;;11.30;36.50;;;;;;5115144;28;20364;-85
2022/04/18 08:33:20;;;;;;;7.00;3.28;;;10.80;38.40;;;;;;5115884;28;19904;-85
2022/04/18 08:35:46;;;;;;;4.28;1.77;;;10.50;39.30;;;;;;5114159;28;20579;-84
2022/04/18 08:38:12;;;;;;;;;;;10.50;39.40;;;;;;5114882;28;20073;-85
2022/04/18 08:40:39;;;;;;;7.40;1.30;;;10.40;39.00;;;;;;5114157;28;19998;-85
2022/04/18 08:43:05;;;;;;;10.10;1.90;;;10.30;39.70;;;;;;5115739;28;20098;-84
2022/04/18 08:45:31;;;;;;;;;;;10.20;41.00;;;;;;5116096;28;20108;-85
2022/04/18 08:53:29;;;;;;;6.35;0.93;;;12.70;33.80;;;;;;5115823;28;20437;-85
2022/04/18 08:55:55;;;;;;;2.92;0.80;;;13.40;31.10;;;;;;5115243;28;20148;-85
2022/04/18 08:58:26;;;;;;;2.97;0.80;;;13.80;31.10;;;;;;5115218;28;20557;-85
2022/04/18 09:00:53;;;;;;;3.17;1.08;;;14.00;30.80;;;;;;5114135;28;20395;-86
2022/04/18 09:03:19;;;;;;;2.38;0.93;;;14.10;31.00;;;;;;5115003;28;20046;-86
2022/04/18 09:05:45;;;;;;;3.67;1.38;;;14.30;31.80;;;;;;5115346;28;20032;-85
2022/04/18 09:08:11;;;;;;;1.05;0.55;;;14.60;28.40;;;;;;5114269;28;20055;-87
2022/04/18 09:10:37;;;;;;;;;;;15.10;28.60;;;;;;5114263;28;20108;-86
2022/04/18 09:13:09;;;;;;;3.78;1.10;;;15.60;28.10;;;;;;5113843;28;19904;-84
2022/04/18 09:15:51;;;;;;;2.47;0.70;;;16.30;27.80;;;;;;5113689;28;20020;-84
2022/04/18 09:18:19;;;;;;;2.90;0.82;;;16.50;25.40;;;;;;5114061;28;20034;-84
2022/04/18 09:20:47;;;;;;;2.22;0.75;;;16.10;25.30;;;;;;5113801;28;20016;-83
2022/04/18 09:23:22;;;;;;;3.92;0.80;;;15.10;25.70;;;;;;5113649;28;20027;-85
2022/04/18 09:25:52;;;;;;;2.42;0.65;;;14.60;27.00;;;;;;5114975;28;20097;-85
2022/04/18 09:28:24;;;;;;;2.03;0.80;;;14.40;26.80;;;;;;5113708;28;20560;-86
2022/04/18 09:30:57;;;;;;;2.90;0.70;;;14.30;27.30;;;;;;5114679;28;20035;-85
2022/04/18 09:33:23;;;;;;;6.82;0.80;;;14.10;27.10;;;;;;5113545;28;20081;-86
2022/04/18 09:35:49;;;;;;;;;;;13.80;27.60;;;;;;5114571;28;20055;-86
2022/04/18 09:38:18;;;;;;;5.68;0.90;;;14.50;27.80;;;;;;5113547;28;19904;-85
2022/04/18 09:40:44;;;;;;;2.25;0.80;;;14.70;27.80;;;;;;5114767;28;20055;-85
2022/04/18 09:43:09;;;;;;;;;;;14.80;27.60;;;;;;5114880;28;20435;-86
2022/04/18 09:45:37;;;;;;;2.42;0.80;;;14.70;28.70;;;;;;5113578;28;19903;-87
2022/04/18 09:48:03;;;;;;;4.82;0.75;;;15.00;28.10;;;;;;5113178;28;20023;-85
2022/04/18 09:53:21;;;;;;;3.10;0.70;;;15.90;27.50;;;;;;5114596;28;20510;-87
2022/04/18 09:55:49;;;;;;;2.67;0.88;;;16.40;24.70;;;;;;5113324;28;20042;-86
2022/04/18 09:58:14;;;;;;;2.15;0.70;;;16.60;24.70;;;;;;5113252;28;20016;-86
2022/04/18 10:00:41;;;;;;;2.20;0.80;;;16.70;25.90;;;;;;5113291;28;20028;-87
2022/04/18 10:03:11;;;;;;;2.45;0.70;;;16.90;25.60;;;;;;5114045;28;20023;-84
2022/04/18 10:05:39;;;;;;;4.20;1.05;;;17.40;24.90;;;;;;5112773;28;20081;-84
2022/04/18 10:08:05;;;;;;;5.13;1.60;;;17.80;23.70;;;;;;5112707;28;20035;-84
2022/04/18 10:10:36;;;;;;;3.15;0.90;;;17.20;23.50;;;;;;5112848;28;20061;-85
2022/04/18 10:13:06;;;;;;;4.50;1.00;;;17.10;24.00;;;;;;5114069;28;20384;-84
2022/04/18 10:15:37;;;;;;;2.70;1.20;;;17.10;24.70;;;;;;5112651;28;20058;-84
2022/04/18 10:18:05;;;;;;;3.03;0.65;;;17.10;25.00;;;;;;5112964;28;20023;-83
2022/04/18 10:21:04;;;;;;;3.30;0.90;;;16.50;24.00;;;;;;5112825;28;20080;-83
2022/04/18 10:23:48;;;;;;;2.30;0.63;;;15.90;24.60;;;;;;5112690;28;20030;-83
2022/04/18 10:26:33;;;;;;;2.83;0.70;;;15.40;25.30;;;;;;5112631;28;20179;-82
2022/04/18 10:29:09;;;;;;;2.85;0.70;;;15.10;25.20;;;;;;5113561;28;20023;-84
2022/04/18 10:31:39;;;;;;;2.00;0.50;;;14.80;25.70;;;;;;5113505;28;20039;-83
2022/04/18 10:34:06;;;;;;;1.77;0.70;;;14.60;25.30;;;;;;5112662;28;20399;-84
2022/04/18 10:36:33;;;;;;;2.92;1.05;;;14.50;26.70;;;;;;5113041;28;20399;-84
2022/04/18 10:39:07;;;;;;;2.15;0.82;;;14.50;26.00;;;;;;5112206;28;20047;-83
2022/04/18 10:41:45;;;;;;;5.18;0.70;;;14.30;24.80;;;;;;5112496;28;20051;-83
2022/04/18 10:44:18;;;;;;;2.95;0.80;;;14.00;24.20;;;;;;5112434;28;20139;-84
2022/04/18 10:46:56;;;;;;;2.03;0.60;;;13.70;25.30;;;;;;5112415;28;20053;-84
2022/04/18 10:49:27;;;;;;;15.65;7.75;;;13.80;25.50;;;;;;5111855;28;20051;-84
2022/04/18 10:51:54;;;;;;;7.22;3.95;;;13.60;26.50;;;;;;5113409;28;20028;-83
2022/04/18 10:54:23;;;;;;;3.35;2.05;;;13.50;32.40;;;;;;5113495;28;20437;-83
2022/04/18 10:56:51;;;;;;;4.78;2.88;;;13.40;33.90;;;;;;5112039;28;20032;-83
2022/04/18 10:59:20;;;;;;;3.28;1.20;;;12.90;33.20;;;;;;5113333;28;20526;-84
2022/04/18 11:01:47;;;;;;;7.55;1.60;;;12.60;33.40;;;;;;5113205;28;20049;-83
2022/04/18 11:04:13;;;;;;;6.32;1.40;;;12.50;34.50;;;;;;5112752;28;20019;-84
2022/04/18 11:06:40;;;;;;;5.60;1.52;;;12.20;34.20;;;;;;5111496;28;20032;-84
2022/04/18 11:09:07;;;;;;;2.40;1.02;;;12.10;35.00;;;;;;5112025;28;20072;-84
2022/04/18 11:11:51;;;;;;;4.10;1.23;;;12.00;34.60;;;;;;5113268;28;20449;-83
2022/04/18 11:14:23;;;;;;;3.75;1.60;;;12.10;34.80;;;;;;5113236;28;20103;-84
2022/04/18 11:16:55;;;;;;;2.55;1.50;;;12.20;34.30;;;;;;5113338;28;20032;-85
2022/04/18 11:19:24;;;;;;;3.30;1.40;;;12.60;34.70;;;;;;5111612;28;20468;-84
2022/04/18 11:21:56;;;;;;;4.28;1.20;;;12.90;33.90;;;;;;5113074;28;20028;-84
2022/04/18 11:24:40;;;;;;;2.85;1.27;;;13.20;33.50;;;;;;5113159;28;20028;-84
2022/04/18 11:27:09;;;;;;;3.78;1.02;;;13.30;33.90;;;;;;5113381;28;20031;-84
2022/04/18 11:29:37;;;;;;;2.70;0.90;;;13.40;33.70;;;;;;5111896;28;20027;-84
2022/04/18 11:32:04;;;;;;;2.15;0.75;;;13.50;33.50;;;;;;5111853;28;20557;-84
2022/04/18 11:34:31;;;;;;;5.65;2.10;;;13.40;32.90;;;;;;5111598;28;20038;-84
2022/04/18 11:37:00;;;;;;;7.93;0.90;;;13.40;33.10;;;;;;5111713;28;20511;-85
2022/04/18 11:39:43;;;;;;;1.95;0.98;;;13.30;32.40;;;;;;5111448;28;20027;-85
2022/04/18 11:42:12;;;;;;;3.88;0.70;;;13.00;32.20;;;;;;5111920;28;20077;-85
2022/04/18 11:44:39;;;;;;;3.05;1.15;;;12.70;33.10;;;;;;5111789;28;20108;-86
2022/04/18 11:47:10;;;;;;;2.97;1.33;;;12.50;32.50;;;;;;5112930;28;20031;-85
2022/04/18 11:49:38;;;;;;;5.25;2.50;;;12.20;33.30;;;;;;5114636;28;20568;-85
2022/04/18 11:52:05;;;;;;;7.47;3.80;;;12.00;34.00;;;;;;5115727;28;20081;-87
2022/04/18 11:54:31;;;;;;;4.32;2.35;;;12.00;34.60;;;;;;5115412;28;20054;-85
2022/04/18 11:57:03;;;;;;;15.27;10.65;;;12.40;35.10;;;;;;5115327;28;20061;-84
2022/04/18 11:59:29;;;;;;;7.00;3.58;;;12.50;34.20;;;;;;5115537;28;20377;-85
2022/04/18 12:07:29;;;;;;;6.32;2.00;;;12.90;33.50;;;;;;5115336;28;20046;-81
2022/04/18 12:09:54;;;;;;;;;;;13.00;33.20;;;;;;5114550;28;20412;-84
2022/04/18 12:12:28;;;;;;;10.82;5.28;;;12.90;32.60;;;;;;5114916;28;19903;-84
2022/04/18 12:14:54;;;;;;;11.23;4.25;;;12.70;32.40;;;;;;5113282;28;20164;-84
2022/04/18 12:17:20;;;;;;;10.32;1.20;;;12.60;32.50;;;;;;5113471;28;20027;-83
2022/04/18 12:19:46;;;;;;;;;;;12.90;29.50;;;;;;5114665;28;20020;-84
2022/04/18 12:22:22;;;;;;;4.25;2.10;;;12.60;29.90;;;;;;5114592;28;20356;-84
2022/04/18 12:24:49;;;;;;;4.88;2.60;;;12.30;32.20;;;;;;5113979;28;20023;-82
2022/04/18 12:27:16;;;;;;;2.60;1.25;;;12.20;31.50;;;;;;5113093;28;20030;-81
2022/04/18 12:29:45;;;;;;;4.00;1.83;;;12.20;31.70;;;;;;5112438;28;20118;-81
2022/04/18 12:32:27;;;;;;;1.88;0.77;;;12.40;33.70;;;;;;5113749;28;20028;-81
2022/04/18 12:34:53;;;;;;;2.38;1.00;;;12.60;34.20;;;;;;5113803;28;20407;-81
2022/04/18 12:37:26;;;;;;;1.98;0.80;;;12.60;34.90;;;;;;5113951;28;20415;-81
2022/04/18 12:40:15;;;;;;;3.65;0.90;;;12.50;35.20;;;;;;5112446;28;20020;-81
2022/04/18 12:42:49;;;;;;;4.93;1.15;;;12.40;35.80;;;;;;5112424;28;20134;-81
2022/04/18 12:45:14;;;;;;;5.85;1.10;;;12.50;36.20;;;;;;5113412;28;20433;-82
2022/04/18 12:47:40;;;;;;;;;;;12.60;35.50;;;;;;5112910;28;20023;-82
2022/04/18 12:50:11;;;;;;;3.53;0.80;;;12.50;36.40;;;;;;5113495;28;19920;-82
2022/04/18 12:52:51;;;;;;;8.80;1.80;;;12.60;35.80;;;;;;5113484;27;20118;-81
2022/04/18 12:55:26;;;;;;;4.25;1.63;;;12.60;34.80;;;;;;5113835;28;20050;-81
2022/04/18 12:57:52;;;;;;;4.57;2.50;;;12.60;33.90;;;;;;5113808;28;20055;-81
2022/04/18 13:00:17;;;;;;;;;;;12.50;32.70;;;;;;5113564;28;20055;-82
2022/04/18 13:02:58;;;;;;;4.07;1.48;;;12.40;32.00;;;;;;5112975;28;19914;-81
2022/04/18 13:05:31;;;;;;;2.58;1.27;;;12.20;30.40;;;;;;5111981;28;20118;-81
2022/04/18 13:08:06;;;;;;;3.10;1.35;;;11.80;30.80;;;;;;5112870;28;20030;-81
2022/04/18 13:10:34;;;;;;;4.03;1.42;;;11.70;31.10;;;;;;5112924;28;20122;-81
2022/04/18 13:13:05;;;;;;;5.32;2.30;;;11.60;31.90;;;;;;5111815;28;20024;-81
2022/04/18 13:15:32;;;;;;;4.13;1.58;;;11.60;32.00;;;;;;5111959;28;20052;-81
2022/04/18 13:18:03;;;;;;;2.60;1.20;;;11.50;32.30;;;;;;5111794;28;20020;-81
2022/04/18 13:20:32;;;;;;;3.60;1.67;;;11.40;32.70;;;;;;5112902;28;20043;-81
2022/04/18 13:22:58;;;;;;;4.00;1.80;;;11.40;32.50;;;;;;5111396;28;20024;-79
2022/04/18 13:25:24;;;;;;;;;;;11.30;32.90;;;;;;5111893;28;20115;-80
2022/04/18 13:27:53;;;;;;;2.83;1.38;;;11.40;32.90;;;;;;5111326;28;20377;-81
2022/04/18 13:30:19;;;;;;;4.80;0.90;;;11.60;33.00;;;;;;5111209;28;20537;-82
2022/04/18 13:32:45;;;;;;;;;;;11.50;33.00;;;;;;5111320;28;20023;-83